Terminal Aerodrome Forecast
Issued by NWS

Home | Current Version | Previous Version | Text Only | Print | Product List | Glossary On
Versions: 1 2 3 4 5 6 7 8 9 10 11 12 13 14 15
000
FTUS42 KTBW 290500
TAFPIE
TAF
KPIE 290539Z 2906/3006 14007KT P6SM FEW020 SCT040 SCT250
     FM291400 06005KT P6SM VCSH SCT025 SCT050
     FM291800 26007KT P6SM VCTS SCT035CB BKN100
     FM300100 VRB06KT P6SM SCT045 BKN250=

USA.gov is the U.S. government's official web portal to all federal, state and local government web resources and services.